createdAt,value
2023-02-13T00:02:42.287Z,7.07
2023-02-13T00:05:44.226Z,7.15
2023-02-13T00:08:45.669Z,7.15
2023-02-13T00:11:47.112Z,6.32
2023-02-13T00:14:48.636Z,6.45
2023-02-13T00:17:50.077Z,5.75
2023-02-13T00:21:05.846Z,6.03
2023-02-13T00:24:07.459Z,7.43
2023-02-13T00:27:09.044Z,6.07
2023-02-13T00:30:11.212Z,6.32
2023-02-13T00:33:12.726Z,6.60
2023-02-13T00:36:17.121Z,6.45
2023-02-13T00:39:19.690Z,7.45
2023-02-13T00:42:26.412Z,6.03
2023-02-13T00:45:28.503Z,6.32
2023-02-13T00:48:31.963Z,5.70
2023-02-13T00:51:33.560Z,6.40
2023-02-13T00:54:35.019Z,6.65
2023-02-13T00:57:36.536Z,6.82
2023-02-13T01:00:38.770Z,6.35
2023-02-13T01:03:41.009Z,5.95
2023-02-13T01:06:42.624Z,6.35
2023-02-13T01:09:44.556Z,5.53
2023-02-13T01:12:46.538Z,5.90
2023-02-13T01:15:49.048Z,6.35
2023-02-13T01:18:50.715Z,5.80
2023-02-13T01:21:52.158Z,5.65
2023-02-13T01:24:53.692Z,5.75
2023-02-13T01:27:55.222Z,5.57
2023-02-13T01:30:58.394Z,5.40
2023-02-13T01:34:00.326Z,5.22
2023-02-13T01:37:01.846Z,5.78
2023-02-13T01:40:04.116Z,5.30
2023-02-13T01:43:09.756Z,5.00
2023-02-13T01:46:12.764Z,4.88
2023-02-13T01:49:23.216Z,5.25
2023-02-13T01:52:25.896Z,5.90
2023-02-13T01:55:29.524Z,5.20
2023-02-13T01:58:34.839Z,5.93
2023-02-13T02:01:37.242Z,5.47
2023-02-13T02:04:42.182Z,5.55
2023-02-13T02:07:50.407Z,5.70
2023-02-13T02:11:02.973Z,5.68
2023-02-13T02:14:04.585Z,5.90
2023-02-13T02:17:08.858Z,5.30
2023-02-13T02:20:31.669Z,5.60
2023-02-13T02:23:45.938Z,5.63
2023-02-13T02:27:06.206Z,4.90
2023-02-13T02:30:38.798Z,5.53
2023-02-13T02:33:55.181Z,5.32
2023-02-13T02:37:11.993Z,4.88
2023-02-13T02:40:30.221Z,5.30
2023-02-13T02:43:55.322Z,5.38
2023-02-13T02:47:30.857Z,5.00
2023-02-13T02:51:01.827Z,4.85
2023-02-13T02:54:32.684Z,5.20
2023-02-13T02:58:16.927Z,4.95
2023-02-13T03:01:46.126Z,4.93
2023-02-13T03:05:11.961Z,5.18
2023-02-13T03:08:14.611Z,5.72
2023-02-13T03:11:35.090Z,5.70
2023-02-13T03:14:37.662Z,5.78
2023-02-13T03:17:57.917Z,5.82
2023-02-13T03:21:36.534Z,6.40
2023-02-13T03:25:07.913Z,6.05
2023-02-13T03:28:38.758Z,6.57
2023-02-13T03:32:01.657Z,6.38
2023-02-13T03:35:56.161Z,6.90
2023-02-13T03:39:03.122Z,6.57
2023-02-13T03:42:10.979Z,6.68
2023-02-13T03:45:37.365Z,6.95
2023-02-13T03:49:04.518Z,6.85
2023-02-13T03:52:16.348Z,6.97
2023-02-13T03:55:38.508Z,7.18
2023-02-13T03:59:04.084Z,6.68
2023-02-13T04:02:15.868Z,6.97
2023-02-13T04:05:22.298Z,6.55
2023-02-13T04:08:23.896Z,6.45
2023-02-13T04:11:35.991Z,7.55
2023-02-13T04:14:48.110Z,6.85
2023-02-13T04:17:55.657Z,7.35
2023-02-13T04:20:57.375Z,6.82
2023-02-13T04:23:59.032Z,6.90
2023-02-13T04:27:00.705Z,8.20
2023-02-13T04:30:02.240Z,7.18
2023-02-13T04:33:03.971Z,7.13
2023-02-13T04:36:05.744Z,8.07
2023-02-13T04:39:07.278Z,7.50
2023-02-13T04:42:08.784Z,8.20
2023-02-13T04:45:10.364Z,8.35
2023-02-13T04:48:11.822Z,7.93
2023-02-13T04:51:13.288Z,9.73
2023-02-13T04:54:14.902Z,8.40
2023-02-13T04:57:16.408Z,8.85
2023-02-13T05:00:18.438Z,8.80
2023-02-13T05:03:19.913Z,8.73
2023-02-13T05:06:21.357Z,9.20
2023-02-13T05:09:22.961Z,8.82
2023-02-13T05:12:24.561Z,8.05
2023-02-13T05:15:26.803Z,8.48
2023-02-13T05:18:28.406Z,8.60
2023-02-13T05:21:48.329Z,8.68
2023-02-13T05:24:49.850Z,8.25
2023-02-13T05:27:51.340Z,8.43
2023-02-13T05:30:53.116Z,8.23
2023-02-13T05:33:54.747Z,8.68
2023-02-13T05:36:56.586Z,8.75
2023-02-13T05:39:58.109Z,9.82
2023-02-13T05:42:59.553Z,11.02
2023-02-13T05:46:05.973Z,10.73
2023-02-13T05:49:09.178Z,10.32
2023-02-13T05:52:10.784Z,11.07
2023-02-13T05:55:12.386Z,9.48
2023-02-13T05:58:14.007Z,9.98
2023-02-13T06:01:15.589Z,10.02
2023-02-13T06:04:17.165Z,9.48
2023-02-13T06:07:18.732Z,9.13
2023-02-13T06:10:20.264Z,10.65
2023-02-13T06:13:21.768Z,10.10
2023-02-13T06:16:23.321Z,11.32
2023-02-13T06:19:24.859Z,9.93
2023-02-13T06:22:26.418Z,8.85
2023-02-13T06:25:28.504Z,9.15
2023-02-13T06:28:30.119Z,9.77
2023-02-13T06:31:31.710Z,9.50
2023-02-13T06:34:33.238Z,11.68
2023-02-13T06:37:34.931Z,10.00
2023-02-13T06:40:36.469Z,9.63
2023-02-13T06:43:39.942Z,9.60
2023-02-13T06:46:43.522Z,10.63
2023-02-13T06:49:45.152Z,9.48
2023-02-13T06:52:51.192Z,10.02
2023-02-13T06:55:53.544Z,10.98
2023-02-13T06:58:55.049Z,10.40
2023-02-13T07:01:56.508Z,10.63
2023-02-13T07:04:58.052Z,10.25
2023-02-13T07:07:59.560Z,10.68
2023-02-13T07:11:01.096Z,10.52
2023-02-13T07:14:02.683Z,11.93
2023-02-13T07:17:04.273Z,11.15
2023-02-13T07:20:06.752Z,10.32
2023-02-13T07:23:08.275Z,10.85
2023-02-13T07:26:11.144Z,11.00
2023-02-13T07:29:12.692Z,12.18
2023-02-13T07:32:14.631Z,27.23
2023-02-13T07:35:16.191Z,41.10
2023-02-13T07:38:18.816Z,31.70
2023-02-13T07:41:20.783Z,30.90
2023-02-13T07:44:22.291Z,41.40
2023-02-13T07:47:23.768Z,19.40
2023-02-13T07:50:25.629Z,15.25
2023-02-13T07:53:27.149Z,12.95
2023-02-13T07:56:28.724Z,13.73
2023-02-13T07:59:30.232Z,12.02
2023-02-13T08:02:31.766Z,13.48
2023-02-13T08:05:33.848Z,13.32
2023-02-13T08:08:35.902Z,14.05
2023-02-13T08:11:55.449Z,14.73
2023-02-13T08:14:56.946Z,14.38
2023-02-13T08:17:58.467Z,13.88
2023-02-13T08:21:02.967Z,17.77
2023-02-13T08:24:05.233Z,21.60
2023-02-13T08:27:06.692Z,23.90
2023-02-13T08:30:10.203Z,29.02
2023-02-13T08:33:11.728Z,27.45
2023-02-13T08:36:13.242Z,25.45
2023-02-13T08:39:14.766Z,23.58
2023-02-13T08:42:16.538Z,23.95
2023-02-13T08:45:18.159Z,24.35
2023-02-13T08:48:19.601Z,17.75
2023-02-13T08:51:21.288Z,14.77
2023-02-13T08:54:22.856Z,16.27
2023-02-13T08:57:24.414Z,13.48
2023-02-13T09:00:25.834Z,13.02
2023-02-13T09:03:27.363Z,11.95
2023-02-13T09:06:28.995Z,11.45
2023-02-13T09:09:30.557Z,11.43
2023-02-13T09:12:32.104Z,10.32
2023-02-13T09:15:33.934Z,10.27
2023-02-13T09:18:35.597Z,11.02
2023-02-13T09:21:37.103Z,11.13
2023-02-13T09:24:38.680Z,10.55
2023-02-13T09:27:40.271Z,11.40
2023-02-13T09:30:41.850Z,13.85
2023-02-13T09:33:47.941Z,12.15
2023-02-13T09:36:55.480Z,12.82
2023-02-13T09:39:57.171Z,12.55
2023-02-13T09:43:22.839Z,13.02
2023-02-13T09:46:31.094Z,12.68
2023-02-13T09:49:36.994Z,10.63
2023-02-13T09:52:39.582Z,11.48
2023-02-13T09:55:53.689Z,11.55
2023-02-13T09:59:10.141Z,10.60
2023-02-13T10:02:33.499Z,10.63
2023-02-13T10:06:04.850Z,11.68
2023-02-13T10:09:21.437Z,10.82
2023-02-13T10:12:37.834Z,11.48
2023-02-13T10:15:48.658Z,11.60
2023-02-13T10:19:31.853Z,11.68
2023-02-13T10:22:45.698Z,11.85
2023-02-13T10:25:58.061Z,12.05
2023-02-13T10:29:25.659Z,11.88
2023-02-13T10:32:45.381Z,11.73
2023-02-13T10:36:01.135Z,12.00
2023-02-13T10:39:13.425Z,10.50
2023-02-13T10:42:28.385Z,10.88
2023-02-13T10:45:49.649Z,14.85
2023-02-13T10:49:17.409Z,12.00
2023-02-13T10:52:46.780Z,13.38
2023-02-13T10:56:03.459Z,14.13
2023-02-13T10:59:40.093Z,14.40
2023-02-13T11:02:41.596Z,13.85
2023-02-13T11:05:43.339Z,15.07
2023-02-13T11:08:47.600Z,17.92
2023-02-13T11:11:49.349Z,17.52
2023-02-13T11:15:08.066Z,16.75
2023-02-13T11:18:19.556Z,17.20
2023-02-13T11:21:34.314Z,20.17
2023-02-13T11:24:36.968Z,18.80
2023-02-13T11:27:39.840Z,20.17
2023-02-13T11:30:41.316Z,20.70
2023-02-13T11:33:42.802Z,22.60
2023-02-13T11:36:44.249Z,22.30
2023-02-13T11:39:51.221Z,25.63
2023-02-13T11:42:53.001Z,24.75
2023-02-13T11:46:17.576Z,26.38
2023-02-13T11:49:23.090Z,25.70
2023-02-13T11:52:50.765Z,24.38
2023-02-13T11:56:06.684Z,25.42
2023-02-13T11:59:13.842Z,25.10
2023-02-13T12:02:24.141Z,24.13
2023-02-13T12:05:28.282Z,24.80
2023-02-13T12:08:33.034Z,25.95
2023-02-13T12:11:42.327Z,25.00
2023-02-13T12:14:46.250Z,25.88
2023-02-13T12:17:57.012Z,25.42
2023-02-13T12:21:09.841Z,26.88
2023-02-13T12:24:30.178Z,24.48
2023-02-13T12:27:42.925Z,24.63
2023-02-13T12:30:53.681Z,25.63
2023-02-13T12:34:07.134Z,25.30
2023-02-13T12:37:11.849Z,25.95
2023-02-13T12:40:24.687Z,22.92
2023-02-13T12:43:54.974Z,25.35
2023-02-13T12:47:08.340Z,24.88
2023-02-13T12:50:25.027Z,26.10
2023-02-13T12:53:42.665Z,26.60
2023-02-13T12:56:56.274Z,25.65
2023-02-13T13:00:09.664Z,25.90
2023-02-13T13:03:35.560Z,25.23
2023-02-13T13:06:54.218Z,26.70
2023-02-13T13:09:58.609Z,25.48
2023-02-13T13:13:16.629Z,26.60
2023-02-13T13:16:20.869Z,25.77
2023-02-13T13:22:44.168Z,25.25
2023-02-13T13:26:05.235Z,25.05
2023-02-13T13:29:27.403Z,24.83
2023-02-13T13:32:30.899Z,25.77
2023-02-13T13:35:34.278Z,26.10
2023-02-13T13:39:04.540Z,27.48
2023-02-13T13:42:19.481Z,26.15
2023-02-13T13:45:37.725Z,26.10
2023-02-13T13:48:57.346Z,25.17
2023-02-13T13:52:24.800Z,26.27
2023-02-13T13:55:46.541Z,25.92
2023-02-13T13:58:50.605Z,26.42
2023-02-13T14:02:17.692Z,25.67
2023-02-13T14:05:25.185Z,26.90
2023-02-13T14:08:41.823Z,24.98
2023-02-13T14:11:47.177Z,26.33
2023-02-13T14:14:49.197Z,25.85
2023-02-13T14:17:53.113Z,23.50
2023-02-13T14:21:01.149Z,25.52
2023-02-13T14:24:11.841Z,25.65
2023-02-13T14:27:25.376Z,24.92
2023-02-13T14:30:31.184Z,27.07
2023-02-13T14:33:33.502Z,25.88
2023-02-13T14:36:40.860Z,27.73
2023-02-13T14:39:43.430Z,27.13
2023-02-13T14:42:50.114Z,26.23
2023-02-13T14:46:06.742Z,25.80
2023-02-13T14:49:17.816Z,28.25
2023-02-13T14:52:26.398Z,28.17
2023-02-13T14:55:45.754Z,26.75
2023-02-13T14:59:06.966Z,28.10
2023-02-13T15:02:23.697Z,27.85
2023-02-13T15:05:32.894Z,27.77
2023-02-13T15:08:46.082Z,27.58
2023-02-13T15:11:47.773Z,29.40
2023-02-13T15:14:49.291Z,27.65
2023-02-13T15:17:59.284Z,29.00
2023-02-13T15:21:01.586Z,29.83
2023-02-13T15:24:03.780Z,29.90
2023-02-13T15:27:07.303Z,29.70
2023-02-13T15:30:23.943Z,29.88
2023-02-13T15:33:47.453Z,29.20
2023-02-13T15:36:49.256Z,28.67
2023-02-13T15:39:50.740Z,27.83
2023-02-13T15:42:53.140Z,27.85
2023-02-13T15:45:57.458Z,28.15
2023-02-13T15:49:13.859Z,28.40
2023-02-13T15:52:18.910Z,29.55
2023-02-13T15:55:30.115Z,30.90
2023-02-13T15:58:34.186Z,30.67
2023-02-13T16:01:36.017Z,28.63
2023-02-13T16:04:37.875Z,31.40
2023-02-13T16:07:51.295Z,30.08
2023-02-13T16:11:27.808Z,28.88
2023-02-13T16:14:31.883Z,31.13
2023-02-13T16:17:36.625Z,32.03
2023-02-13T16:20:38.926Z,30.40
2023-02-13T16:23:40.663Z,33.33
2023-02-13T16:26:44.133Z,32.13
2023-02-13T16:29:54.682Z,31.33
2023-02-13T16:33:29.724Z,31.83
2023-02-13T16:36:31.241Z,33.50
2023-02-13T16:39:33.235Z,32.28
2023-02-13T16:42:34.762Z,32.35
2023-02-13T16:45:36.469Z,31.85
2023-02-13T16:48:38.435Z,28.10
2023-02-13T16:51:44.612Z,29.10
2023-02-13T16:54:50.998Z,27.70
2023-02-13T16:58:02.056Z,27.20
2023-02-13T17:01:05.305Z,27.63
2023-02-13T17:04:22.384Z,26.67
2023-02-13T17:07:29.891Z,27.63
2023-02-13T17:10:34.151Z,25.77
2023-02-13T17:13:35.848Z,26.35
2023-02-13T17:16:37.759Z,28.15
2023-02-13T17:19:39.379Z,29.73
2023-02-13T17:22:43.788Z,27.73
2023-02-13T17:25:47.417Z,26.15
2023-02-13T17:28:49.082Z,27.75
2023-02-13T17:31:54.328Z,28.17
2023-02-13T17:34:56.055Z,29.42
2023-02-13T17:37:57.710Z,27.70
2023-02-13T17:41:00.597Z,28.23
2023-02-13T17:44:02.296Z,28.52
2023-02-13T17:47:03.991Z,29.13
2023-02-13T17:50:10.519Z,30.42
2023-02-13T17:53:27.602Z,26.73
2023-02-13T17:56:29.190Z,27.42
2023-02-13T17:59:30.627Z,28.40
2023-02-13T18:02:33.598Z,29.45
2023-02-13T18:05:35.114Z,30.80
2023-02-13T18:08:36.595Z,33.63
2023-02-13T18:11:38.070Z,29.50
2023-02-13T18:14:39.615Z,27.55
2023-02-13T18:17:41.986Z,28.17
2023-02-13T18:20:44.253Z,27.02
2023-02-13T18:23:45.757Z,28.42
2023-02-13T18:26:47.479Z,31.02
2023-02-13T18:29:49.064Z,31.63
2023-02-13T18:32:53.053Z,34.85
2023-02-13T18:36:01.422Z,27.25
2023-02-13T18:39:03.768Z,30.17
2023-02-13T18:42:05.882Z,28.13
2023-02-13T18:45:07.746Z,25.73
2023-02-13T18:48:09.551Z,26.33
2023-02-13T18:51:11.164Z,26.58
2023-02-13T18:54:13.145Z,27.08
2023-02-13T18:57:15.095Z,25.33
2023-02-13T19:00:17.230Z,24.63
2023-02-13T19:03:18.794Z,24.45
2023-02-13T19:06:23.438Z,22.83
2023-02-13T19:09:24.995Z,23.85
2023-02-13T19:12:26.577Z,23.65
2023-02-13T19:15:28.019Z,26.42
2023-02-13T19:18:29.541Z,25.63
2023-02-13T19:21:32.738Z,26.13
2023-02-13T19:24:34.204Z,23.53
2023-02-13T19:27:37.727Z,32.15
2023-02-13T19:30:39.414Z,23.58
2023-02-13T19:33:41.243Z,25.85
2023-02-13T19:36:42.778Z,26.83
2023-02-13T19:39:44.281Z,25.75
2023-02-13T19:42:45.736Z,22.92
2023-02-13T19:45:47.404Z,25.20
2023-02-13T19:48:49.322Z,23.77
2023-02-13T19:51:50.875Z,23.45
2023-02-13T19:54:54.101Z,23.27
2023-02-13T19:57:55.570Z,27.70
2023-02-13T20:01:08.983Z,26.23
2023-02-13T20:04:11.423Z,24.38
2023-02-13T20:07:13.863Z,24.35
2023-02-13T20:10:15.401Z,23.25
2023-02-13T20:13:16.848Z,24.08
2023-02-13T20:16:18.610Z,21.65
2023-02-13T20:19:20.096Z,25.40
2023-02-13T20:22:21.726Z,24.90
2023-02-13T20:25:23.258Z,24.02
2023-02-13T20:28:24.789Z,21.48
2023-02-13T20:31:27.039Z,25.20
2023-02-13T20:34:31.667Z,22.50
2023-02-13T20:37:39.041Z,20.88
2023-02-13T20:40:40.567Z,21.45
2023-02-13T20:43:42.562Z,23.05
2023-02-13T20:46:44.168Z,20.50
2023-02-13T20:49:45.763Z,19.48
2023-02-13T20:52:47.367Z,18.85
2023-02-13T20:55:49.010Z,19.17
2023-02-13T20:58:53.254Z,18.08
2023-02-13T21:01:54.819Z,20.40
2023-02-13T21:04:56.594Z,20.40
2023-02-13T21:07:58.200Z,18.63
2023-02-13T21:11:04.456Z,22.15
2023-02-13T21:14:06.628Z,42.00
2023-02-13T21:17:09.633Z,29.10
2023-02-13T21:20:11.469Z,20.73
2023-02-13T21:23:12.977Z,17.73
2023-02-13T21:26:16.923Z,18.23
2023-02-13T21:29:19.315Z,18.83
2023-02-13T21:32:20.978Z,16.77
2023-02-13T21:35:22.465Z,16.05
2023-02-13T21:38:24.356Z,17.00
2023-02-13T21:41:26.215Z,15.90
2023-02-13T21:44:27.753Z,17.15
2023-02-13T21:47:29.301Z,15.32
2023-02-13T21:50:30.830Z,16.67
2023-02-13T21:53:32.399Z,16.75
2023-02-13T21:56:36.764Z,15.90
2023-02-13T21:59:38.291Z,15.48
2023-02-13T22:02:39.818Z,16.30
2023-02-13T22:05:47.899Z,16.92
2023-02-13T22:08:49.553Z,15.88
2023-02-13T22:11:52.706Z,15.95
2023-02-13T22:14:54.445Z,15.40
2023-02-13T22:17:56.028Z,13.38
2023-02-13T22:20:58.059Z,15.43
2023-02-13T22:24:00.254Z,15.85
2023-02-13T22:27:03.059Z,14.60
2023-02-13T22:30:06.786Z,15.55
2023-02-13T22:33:09.011Z,15.63
2023-02-13T22:36:10.585Z,14.50
2023-02-13T22:39:12.742Z,14.40
2023-02-13T22:42:14.437Z,13.23
2023-02-13T22:45:16.205Z,15.23
2023-02-13T22:48:17.669Z,14.20
2023-02-13T22:51:22.556Z,13.52
2023-02-13T22:54:23.986Z,14.65
2023-02-13T22:57:25.631Z,13.52
2023-02-13T23:00:27.109Z,15.35
2023-02-13T23:03:32.506Z,13.68
2023-02-13T23:06:34.029Z,12.70
2023-02-13T23:09:35.485Z,13.07
2023-02-13T23:12:37.094Z,14.15
2023-02-13T23:15:38.627Z,13.57
2023-02-13T23:18:40.432Z,12.13
2023-02-13T23:21:41.919Z,12.27
2023-02-13T23:24:43.360Z,11.90
2023-02-13T23:27:44.868Z,13.48
2023-02-13T23:30:46.423Z,12.85
2023-02-13T23:33:47.941Z,11.65
2023-02-13T23:36:49.566Z,11.20
2023-02-13T23:39:51.064Z,11.85
2023-02-13T23:42:52.647Z,12.23
2023-02-13T23:45:54.138Z,12.20
2023-02-13T23:48:55.620Z,11.98
2023-02-13T23:51:57.084Z,11.90
2023-02-13T23:54:58.615Z,10.55
2023-02-13T23:58:00.754Z,10.85
